Time;durP1;ratioP1;P1;durP2;ratioP2;P2;SDS_P1;SDS_P2;PMS_P1;PMS_P2;Temp;Humidity;BMP_temperature;BMP_pressure;BME280_temperature;BME280_humidity;BME280_pressure;Samples;Min_cycle;Max_cycle;Signal;HPM_P1;HPM_P2
2021/12/27 00:00:09;;;;;;;;;;;22.80;56.10;;;;;;685586;28;1486;-86
2021/12/27 00:00:30;;;;;;;;;;;22.70;55.40;;;;;;685626;28;1517;-87
2021/12/27 00:00:53;;;;;;;;;;;22.70;56.00;;;;;;685418;28;1453;-88
2021/12/27 00:01:14;;;;;;;;;;;22.80;55.40;;;;;;685590;28;1258;-87
2021/12/27 00:01:38;;;;;;;;;;;22.70;55.20;;;;;;682821;29;1243;-86
2021/12/27 00:01:59;;;;;;;;;;;22.70;55.30;;;;;;682863;29;1212;-85
2021/12/27 00:02:19;;;;;;;;;;;22.70;55.20;;;;;;683122;29;784;-85
2021/12/27 00:02:41;;;;;;;;;;;22.70;54.90;;;;;;680337;29;1224;-86
2021/12/27 00:03:02;;;;;;;;;;;22.70;55.10;;;;;;680240;29;1099;-85
2021/12/27 00:03:22;;;;;;;;;;;22.70;54.70;;;;;;678407;29;1512;-86
2021/12/27 00:03:43;;;;;;;;;;;22.70;54.70;;;;;;680758;29;1468;-85
2021/12/27 00:04:04;;;;;;;;;;;22.80;54.90;;;;;;682849;29;1364;-86
2021/12/27 00:04:24;;;;;;;;;;;22.70;54.80;;;;;;680667;29;1264;-87
2021/12/27 00:04:45;;;;;;;;;;;22.70;54.00;;;;;;683149;29;820;-86
2021/12/27 00:05:06;;;;;;;;;;;22.70;54.00;;;;;;683302;28;886;-84
2021/12/27 00:05:26;;;;;;;;;;;22.80;54.50;;;;;;685431;28;1405;-86
2021/12/27 00:05:47;;;;;;;;;;;22.70;53.00;;;;;;685799;28;1337;-86
2021/12/27 00:06:09;;;;;;;;;;;22.70;54.10;;;;;;685714;28;815;-84
2021/12/27 00:06:30;;;;;;;;;;;22.70;54.10;;;;;;685574;28;1310;-84
2021/12/27 00:06:51;;;;;;;;;;;22.70;53.70;;;;;;685439;28;1360;-86
2021/12/27 00:07:12;;;;;;;;;;;22.70;54.50;;;;;;685614;28;1083;-84
2021/12/27 00:07:32;;;;;;;;;;;22.70;54.40;;;;;;688309;28;914;-86
2021/12/27 00:07:54;;;;;;;;;;;22.70;54.40;;;;;;685476;28;1199;-84
2021/12/27 00:08:14;;;;;;;;;;;22.70;54.20;;;;;;682916;28;1346;-85
2021/12/27 00:08:41;;;;;;;;;;;22.70;54.20;;;;;;682816;29;1147;-84
2021/12/27 00:09:01;;;;;;;;;;;22.50;52.90;;;;;;682880;28;1645;-85
2021/12/27 00:09:22;;;;;;;;;;;22.60;54.00;;;;;;679098;29;1189;-85
2021/12/27 00:09:43;;;;;;;;;;;22.60;52.80;;;;;;678901;29;906;-86
2021/12/27 00:10:04;;;;;;;;;;;22.60;52.50;;;;;;681315;29;808;-85
2021/12/27 00:10:27;;;;;;;;;;;22.60;51.80;;;;;;680227;29;1622;-85
2021/12/27 00:10:47;;;;;;;;;;;22.60;51.70;;;;;;681005;29;1176;-87
2021/12/27 00:11:08;;;;;;;;;;;22.60;51.90;;;;;;681103;29;1236;-84
2021/12/27 00:11:29;;;;;;;;;;;22.60;52.70;;;;;;683031;29;851;-86
2021/12/27 00:11:50;;;;;;;;;;;22.60;53.80;;;;;;682916;29;823;-87
2021/12/27 00:12:10;;;;;;;;;;;22.60;53.90;;;;;;683060;29;898;-87
2021/12/27 00:12:31;;;;;;;;;;;22.60;52.70;;;;;;683253;28;839;-87
2021/12/27 00:12:51;;;;;;;;;;;22.50;52.80;;;;;;685641;28;855;-86
2021/12/27 00:13:12;;;;;;;;;;;22.50;52.60;;;;;;685631;28;1444;-86
2021/12/27 00:13:33;;;;;;;;;;;22.60;53.20;;;;;;685534;28;1390;-86
2021/12/27 00:13:56;;;;;;;;;;;22.50;52.90;;;;;;685408;28;1385;-85
2021/12/27 00:14:17;;;;;;;;;;;22.50;51.40;;;;;;685563;28;1382;-85
2021/12/27 00:14:37;;;;;;;;;;;22.50;51.40;;;;;;685503;28;1299;-85
2021/12/27 00:14:58;;;;;;;;;;;22.50;51.60;;;;;;685541;28;938;-86
2021/12/27 00:15:18;;;;;;;;;;;22.50;52.00;;;;;;685665;28;1243;-85
2021/12/27 00:15:41;;;;;;;;;;;22.50;51.40;;;;;;685594;28;1506;-86
2021/12/27 00:16:02;;;;;;;;;;;22.50;50.90;;;;;;685559;28;818;-86
2021/12/27 00:16:26;;;;;;;;;;;22.50;51.60;;;;;;684948;28;1617;-85
2021/12/27 00:16:46;;;;;;;;;;;22.50;51.60;;;;;;683358;28;1828;-81
2021/12/27 00:17:07;;;;;;;;;;;22.50;50.80;;;;;;684271;28;1599;-84
2021/12/27 00:17:27;;;;;;;;;;;22.50;50.20;;;;;;689171;28;1911;-85
2021/12/27 00:17:48;;;;;;;;;;;22.50;50.70;;;;;;688358;28;1093;-84
2021/12/27 00:18:09;;;;;;;;;;;22.40;50.50;;;;;;687524;28;862;-82
2021/12/27 00:18:29;;;;;;;;;;;22.50;49.90;;;;;;688205;28;1594;-86
2021/12/27 00:18:50;;;;;;;;;;;22.40;50.80;;;;;;688295;28;914;-85
2021/12/27 00:19:11;;;;;;;;;;;22.40;50.80;;;;;;685268;28;1511;-86
2021/12/27 00:19:32;;;;;;;;;;;22.40;49.80;;;;;;683346;28;744;-86
2021/12/27 00:19:55;;;;;;;;;;;22.40;50.10;;;;;;682785;29;1366;-85
2021/12/27 00:20:16;;;;;;;;;;;22.40;50.00;;;;;;683024;29;819;-85
2021/12/27 00:20:37;;;;;;;;;;;22.40;49.80;;;;;;682999;29;875;-84
2021/12/27 00:21:05;;;;;;;;;;;22.40;50.60;;;;;;684024;28;1269;-87
2021/12/27 00:21:25;;;;;;;;;;;22.40;50.00;;;;;;685628;28;827;-86
2021/12/27 00:21:46;;;;;;;;;;;22.40;49.00;;;;;;685777;28;831;-86
2021/12/27 00:22:07;;;;;;;;;;;22.40;49.20;;;;;;685604;28;795;-83
2021/12/27 00:22:27;;;;;;;;;;;22.40;49.30;;;;;;682751;29;1554;-84
2021/12/27 00:22:49;;;;;;;;;;;22.40;49.40;;;;;;684261;28;784;-85
2021/12/27 00:23:09;;;;;;;;;;;22.40;49.70;;;;;;685419;28;1776;-84
2021/12/27 00:23:30;;;;;;;;;;;22.40;49.60;;;;;;682546;29;1236;-86
2021/12/27 00:23:50;;;;;;;;;;;22.40;49.50;;;;;;683159;28;1287;-84
2021/12/27 00:24:11;;;;;;;;;;;22.40;49.20;;;;;;680895;29;1248;-84
2021/12/27 00:24:32;;;;;;;;;;;22.40;48.90;;;;;;682892;29;1054;-83
2021/12/27 00:24:52;;;;;;;;;;;22.40;49.00;;;;;;683123;29;890;-84
2021/12/27 00:25:13;;;;;;;;;;;22.40;48.80;;;;;;683266;28;1101;-85
2021/12/27 00:25:34;;;;;;;;;;;22.40;49.00;;;;;;680954;29;1198;-85
2021/12/27 00:25:54;;;;;;;;;;;22.40;49.80;;;;;;683334;29;1237;-84
2021/12/27 00:26:15;;;;;;;;;;;22.40;49.20;;;;;;680781;29;1083;-85
2021/12/27 00:26:36;;;;;;;;;;;22.40;49.20;;;;;;680874;29;1262;-84
2021/12/27 00:26:56;;;;;;;;;;;22.40;49.40;;;;;;678629;29;1332;-83
2021/12/27 00:27:17;;;;;;;;;;;22.40;49.10;;;;;;681097;29;977;-85
2021/12/27 00:27:39;;;;;;;;;;;22.40;49.60;;;;;;683503;29;803;-85
2021/12/27 00:27:59;;;;;;;;;;;22.40;50.50;;;;;;683800;28;889;-84
2021/12/27 00:28:20;;;;;;;;;;;22.30;49.90;;;;;;683683;28;1209;-83
2021/12/27 00:28:41;;;;;;;;;;;22.40;49.00;;;;;;684001;28;1483;-82
2021/12/27 00:29:02;;;;;;;;;;;22.40;49.10;;;;;;686098;28;854;-84
2021/12/27 00:29:23;;;;;;;;;;;22.40;48.80;;;;;;683617;28;1246;-84
2021/12/27 00:29:44;;;;;;;;;;;22.40;49.00;;;;;;683636;28;1402;-84
2021/12/27 00:30:05;;;;;;;;;;;22.40;49.10;;;;;;683587;28;1292;-83
2021/12/27 00:30:26;;;;;;;;;;;22.40;49.10;;;;;;683288;28;1075;-85
2021/12/27 00:30:46;;;;;;;;;;;22.40;49.30;;;;;;683611;28;1306;-83
2021/12/27 00:31:07;;;;;;;;;;;22.40;48.60;;;;;;683752;28;836;-85
2021/12/27 00:31:28;;;;;;;;;;;22.40;48.90;;;;;;686136;28;799;-84
2021/12/27 00:31:48;;;;;;;;;;;22.40;49.70;;;;;;686207;28;926;-84
2021/12/27 00:32:09;;;;;;;;;;;22.40;49.50;;;;;;683582;28;1366;-85
2021/12/27 00:32:30;;;;;;;;;;;22.40;49.00;;;;;;685863;28;1340;-86
2021/12/27 00:32:51;;;;;;;;;;;22.40;48.70;;;;;;685737;28;1241;-85
2021/12/27 00:33:11;;;;;;;;;;;22.30;48.70;;;;;;680743;29;1317;-85
2021/12/27 00:33:32;;;;;;;;;;;22.40;49.40;;;;;;683654;28;1280;-84
2021/12/27 00:33:52;;;;;;;;;;;22.40;49.00;;;;;;683527;28;1361;-85
2021/12/27 00:34:13;;;;;;;;;;;22.40;49.10;;;;;;683901;28;835;-82
2021/12/27 00:34:36;;;;;;;;;;;22.30;48.90;;;;;;685981;28;1566;-82
2021/12/27 00:34:56;;;;;;;;;;;22.30;49.00;;;;;;682974;29;1210;-84
2021/12/27 00:35:18;;;;;;;;;;;22.40;49.00;;;;;;680754;29;1339;-86
2021/12/27 00:35:40;;;;;;;;;;;22.30;48.90;;;;;;679051;29;1201;-83
2021/12/27 00:36:00;;;;;;;;;;;22.30;48.80;;;;;;680741;29;1271;-85
2021/12/27 00:36:21;;;;;;;;;;;22.30;48.80;;;;;;680732;29;961;-85
2021/12/27 00:36:42;;;;;;;;;;;22.40;48.80;;;;;;684727;28;1226;-84
2021/12/27 00:37:03;;;;;;;;;;;22.30;49.00;;;;;;686088;28;788;-87
2021/12/27 00:37:24;;;;;;;;;;;22.40;48.60;;;;;;683994;28;1940;-83
2021/12/27 00:37:45;;;;;;;;;;;22.30;48.80;;;;;;686771;28;776;-83
2021/12/27 00:38:05;;;;;;;;;;;22.30;49.50;;;;;;685990;28;1222;-83
2021/12/27 00:38:26;;;;;;;;;;;22.30;49.00;;;;;;682816;28;1308;-83
2021/12/27 00:38:46;;;;;;;;;;;22.30;48.90;;;;;;680905;29;1112;-83
2021/12/27 00:39:07;;;;;;;;;;;22.30;49.30;;;;;;678364;29;1131;-84
2021/12/27 00:39:28;;;;;;;;;;;22.30;48.50;;;;;;678236;29;1206;-83
2021/12/27 00:39:48;;;;;;;;;;;22.30;48.70;;;;;;678559;29;895;-84
2021/12/27 00:40:11;;;;;;;;;;;22.40;48.70;;;;;;680700;29;816;-83
2021/12/27 00:40:31;;;;;;;;;;;22.30;48.50;;;;;;681220;29;811;-85
2021/12/27 00:40:52;;;;;;;;;;;22.30;48.80;;;;;;683928;28;1398;-86
2021/12/27 00:41:12;;;;;;;;;;;22.30;48.90;;;;;;686644;28;893;-84
2021/12/27 00:41:33;;;;;;;;;;;22.30;48.70;;;;;;688956;28;871;-84
2021/12/27 00:41:54;;;;;;;;;;;22.30;48.90;;;;;;688259;28;795;-84
2021/12/27 00:42:15;;;;;;;;;;;22.30;49.00;;;;;;686370;28;1098;-84
2021/12/27 00:42:35;;;;;;;;;;;22.30;48.70;;;;;;683616;28;906;-84
2021/12/27 00:42:56;;;;;;;;;;;22.30;48.90;;;;;;683367;29;803;-84
2021/12/27 00:43:17;;;;;;;;;;;21.60;48.60;;;;;;683478;29;815;-84
2021/12/27 00:43:37;;;;;;;;;;;22.30;48.90;;;;;;680603;29;1132;-84
2021/12/27 00:44:01;;;;;;;;;;;22.30;49.50;;;;;;680968;29;1361;-82
2021/12/27 00:44:21;;;;;;;;;;;21.50;47.90;;;;;;683948;28;1368;-83
2021/12/27 00:44:42;;;;;;;;;;;22.30;48.90;;;;;;686254;28;768;-84
2021/12/27 00:45:03;;;;;;;;;;;22.30;48.50;;;;;;686026;28;913;-83
2021/12/27 00:45:23;;;;;;;;;;;22.30;48.80;;;;;;685895;28;1212;-85
2021/12/27 00:45:44;;;;;;;;;;;22.30;48.80;;;;;;685487;28;779;-84
2021/12/27 00:46:05;;;;;;;;;;;22.30;48.60;;;;;;686541;28;1234;-83
2021/12/27 00:46:25;;;;;;;;;;;22.30;48.50;;;;;;685851;28;1236;-84
2021/12/27 00:46:46;;;;;;;;;;;22.30;48.40;;;;;;686217;28;851;-83
2021/12/27 00:47:06;;;;;;;;;;;22.20;48.70;;;;;;683558;28;1325;-84
2021/12/27 00:47:27;;;;;;;;;;;22.30;48.90;;;;;;685969;28;1316;-85
2021/12/27 00:47:48;;;;;;;;;;;22.30;48.60;;;;;;685787;28;960;-83
2021/12/27 00:48:09;;;;;;;;;;;22.30;48.40;;;;;;683692;28;1121;-86
2021/12/27 00:48:29;;;;;;;;;;;22.30;48.70;;;;;;683215;29;1199;-86
2021/12/27 00:48:50;;;;;;;;;;;22.30;48.40;;;;;;683336;28;1124;-86
2021/12/27 00:49:10;;;;;;;;;;;22.30;48.50;;;;;;683783;28;1326;-85
2021/12/27 00:49:31;;;;;;;;;;;22.30;49.40;;;;;;683158;29;1382;-85
2021/12/27 00:49:52;;;;;;;;;;;22.30;48.10;;;;;;680684;29;1358;-84
2021/12/27 00:50:12;;;;;;;;;;;22.30;48.10;;;;;;680806;29;1191;-84
2021/12/27 00:50:42;;;;;;;;;;;22.30;48.30;;;;;;677998;29;820;-84
2021/12/27 00:51:03;;;;;;;;;;;22.30;48.80;;;;;;682755;28;1155;-84
2021/12/27 00:51:26;;;;;;;;;;;22.30;48.20;;;;;;682292;28;1077;-83
2021/12/27 00:51:47;;;;;;;;;;;22.30;48.10;;;;;;683269;29;886;-84
2021/12/27 00:52:08;;;;;;;;;;;22.20;48.20;;;;;;685224;28;1648;-84
2021/12/27 00:52:29;;;;;;;;;;;22.30;48.10;;;;;;683182;29;1483;-83
2021/12/27 00:52:50;;;;;;;;;;;22.30;48.60;;;;;;683052;28;1306;-85
2021/12/27 00:53:10;;;;;;;;;;;22.30;48.30;;;;;;683356;29;1121;-84
2021/12/27 00:53:31;;;;;;;;;;;22.30;48.20;;;;;;683598;28;835;-84
2021/12/27 00:53:51;;;;;;;;;;;22.30;48.50;;;;;;686514;28;1200;-84
2021/12/27 00:54:12;;;;;;;;;;;22.30;48.50;;;;;;685769;28;1137;-84
2021/12/27 00:54:32;;;;;;;;;;;22.30;48.30;;;;;;685882;28;1376;-83
2021/12/27 00:54:53;;;;;;;;;;;22.20;48.60;;;;;;685843;28;874;-85
2021/12/27 00:55:15;;;;;;;;;;;22.30;48.80;;;;;;683303;29;1143;-83
2021/12/27 00:55:35;;;;;;;;;;;22.30;48.50;;;;;;682535;29;1285;-85
2021/12/27 00:55:56;;;;;;;;;;;22.30;48.40;;;;;;680693;29;827;-85
2021/12/27 00:56:16;;;;;;;;;;;22.30;48.50;;;;;;681194;29;851;-84
2021/12/27 00:56:37;;;;;;;;;;;22.30;48.30;;;;;;683339;29;968;-85
2021/12/27 00:56:57;;;;;;;;;;;22.30;48.40;;;;;;683909;28;1441;-86
2021/12/27 00:57:18;;;;;;;;;;;22.30;48.30;;;;;;683531;28;1907;-85
2021/12/27 00:57:39;;;;;;;;;;;22.20;48.10;;;;;;683313;29;1267;-82
2021/12/27 00:58:00;;;;;;;;;;;22.20;48.20;;;;;;680655;29;851;-85
2021/12/27 00:58:20;;;;;;;;;;;22.30;48.10;;;;;;680728;29;1481;-84
2021/12/27 00:58:41;;;;;;;;;;;22.30;48.50;;;;;;680566;29;1325;-83
2021/12/27 00:59:02;;;;;;;;;;;22.30;48.10;;;;;;681081;29;823;-83
2021/12/27 00:59:22;;;;;;;;;;;22.30;48.20;;;;;;683750;28;1327;-83
2021/12/27 00:59:43;;;;;;;;;;;22.30;48.20;;;;;;685575;28;1232;-81
2021/12/27 01:00:05;;;;;;;;;;;22.30;48.10;;;;;;686065;28;1539;-84
2021/12/27 01:00:26;;;;;;;;;;;22.20;48.20;;;;;;686438;28;1173;-83
2021/12/27 01:00:46;;;;;;;;;;;22.30;48.40;;;;;;688644;28;1150;-83
2021/12/27 01:01:07;;;;;;;;;;;22.20;48.50;;;;;;688713;28;842;-84
2021/12/27 01:01:28;;;;;;;;;;;22.30;48.20;;;;;;685357;28;1189;-83
2021/12/27 01:01:48;;;;;;;;;;;22.30;48.30;;;;;;683456;29;771;-83
2021/12/27 01:02:09;;;;;;;;;;;22.30;48.80;;;;;;683711;28;886;-82
2021/12/27 01:02:30;;;;;;;;;;;22.30;48.20;;;;;;685899;28;1276;-84
2021/12/27 01:02:53;;;;;;;;;;;22.20;48.20;;;;;;685959;28;909;-82
2021/12/27 01:03:13;;;;;;;;;;;22.30;48.10;;;;;;684403;28;849;-82
2021/12/27 01:03:34;;;;;;;;;;;22.20;48.10;;;;;;683215;29;938;-83
2021/12/27 01:03:55;;;;;;;;;;;22.20;48.20;;;;;;680577;29;1197;-81
2021/12/27 01:04:15;;;;;;;;;;;22.20;48.10;;;;;;680659;29;1160;-82
2021/12/27 01:04:36;;;;;;;;;;;22.20;48.00;;;;;;680658;29;839;-82
2021/12/27 01:04:56;;;;;;;;;;;22.20;48.00;;;;;;681067;29;1502;-82
2021/12/27 01:05:17;;;;;;;;;;;22.20;48.00;;;;;;681069;29;1089;-83
2021/12/27 01:05:38;;;;;;;;;;;22.20;48.00;;;;;;683305;29;831;-83
2021/12/27 01:06:08;;;;;;;;;;;22.20;48.50;;;;;;683350;29;1466;-82
2021/12/27 01:06:28;;;;;;;;;;;22.80;48.30;;;;;;683224;29;1185;-81
2021/12/27 01:06:49;;;;;;;;;;;21.60;47.80;;;;;;684856;28;1243;-83
2021/12/27 01:07:09;;;;;;;;;;;22.20;48.00;;;;;;685934;28;1449;-84
2021/12/27 01:07:30;;;;;;;;;;;22.20;48.00;;;;;;686236;28;1178;-83
2021/12/27 01:07:51;;;;;;;;;;;22.20;48.60;;;;;;683126;29;1234;-83
2021/12/27 01:08:12;;;;;;;;;;;22.20;47.90;;;;;;683485;29;802;-82
2021/12/27 01:08:33;;;;;;;;;;;22.20;48.20;;;;;;683624;28;854;-82
2021/12/27 01:08:56;;;;;;;;;;;22.20;48.20;;;;;;683222;28;1450;-82
2021/12/27 01:09:35;;;;;;;;;;;22.20;47.90;;;;;;681174;29;1123;-84
2021/12/27 01:12:09;;;;;;;;;;;22.20;47.80;;;;;;686181;28;648;-83
2021/12/27 01:12:46;;;;;;;;;;;22.20;47.70;;;;;;686087;28;1058;-84
2021/12/27 01:13:20;;;;;;;;;;;22.20;47.80;;;;;;688817;28;1271;-83
2021/12/27 01:13:44;;;;;;;;;;;22.20;48.10;;;;;;686020;28;1208;-82
2021/12/27 01:14:12;;;;;;;;;;;22.20;48.10;;;;;;685797;28;1476;-81
2021/12/27 01:14:54;;;;;;;;;;;22.20;47.80;;;;;;685986;28;842;-84
2021/12/27 01:16:27;;;;;;;;;;;22.20;48.10;;;;;;686266;28;885;-83
2021/12/27 01:16:48;;;;;;;;;;;22.10;47.90;;;;;;686001;28;1228;-82
2021/12/27 01:17:09;;;;;;;;;;;22.20;48.50;;;;;;683205;29;1576;-83
2021/12/27 01:17:29;;;;;;;;;;;22.20;47.70;;;;;;680789;29;1970;-82
2021/12/27 01:17:50;;;;;;;;;;;22.20;47.90;;;;;;678060;29;950;-84
2021/12/27 01:18:11;;;;;;;;;;;22.20;47.60;;;;;;675655;29;1262;-83
2021/12/27 01:18:31;;;;;;;;;;;22.20;47.80;;;;;;675774;29;1438;-82
2021/12/27 01:18:52;;;;;;;;;;;22.20;47.80;;;;;;675784;29;1284;-84
2021/12/27 01:19:13;;;;;;;;;;;22.20;47.60;;;;;;681054;29;1296;-86
2021/12/27 01:19:33;;;;;;;;;;;22.20;47.70;;;;;;683665;28;1331;-83
2021/12/27 01:19:54;;;;;;;;;;;22.20;47.80;;;;;;685998;28;763;-85
2021/12/27 01:20:16;;;;;;;;;;;22.20;47.60;;;;;;686141;28;898;-84
2021/12/27 01:20:37;;;;;;;;;;;22.20;47.60;;;;;;685930;28;1173;-85
2021/12/27 01:20:57;;;;;;;;;;;22.10;47.40;;;;;;685192;28;1513;-85
2021/12/27 01:21:19;;;;;;;;;;;22.20;47.60;;;;;;683786;28;1138;-83
2021/12/27 01:21:40;;;;;;;;;;;22.20;47.80;;;;;;683378;29;1111;-83
2021/12/27 01:22:00;;;;;;;;;;;22.20;47.70;;;;;;682707;29;1497;-87
2021/12/27 01:22:21;;;;;;;;;;;22.20;47.70;;;;;;678166;28;1258;-83
2021/12/27 01:22:41;;;;;;;;;;;22.20;47.60;;;;;;678413;29;808;-91
2021/12/27 01:23:02;;;;;;;;;;;22.10;47.60;;;;;;677159;29;1339;-84
2021/12/27 01:23:23;;;;;;;;;;;22.10;47.50;;;;;;678126;29;1331;-87
2021/12/27 01:23:43;;;;;;;;;;;22.20;47.60;;;;;;675668;29;1312;-86
2021/12/27 01:24:04;;;;;;;;;;;22.20;47.50;;;;;;678430;29;1156;-84
2021/12/27 01:24:25;;;;;;;;;;;22.10;47.80;;;;;;677945;29;1219;-83
2021/12/27 01:24:46;;;;;;;;;;;22.10;47.60;;;;;;678606;29;783;-85
2021/12/27 01:25:07;;;;;;;;;;;22.10;47.50;;;;;;680773;29;895;-87
2021/12/27 01:25:27;;;;;;;;;;;22.90;48.00;;;;;;678012;29;1236;-84
2021/12/27 01:25:48;;;;;;;;;;;22.20;47.60;;;;;;678448;29;879;-88
2021/12/27 01:26:09;;;;;;;;;;;22.10;47.40;;;;;;681063;29;823;-85
2021/12/27 01:26:30;;;;;;;;;;;22.20;47.40;;;;;;683329;28;1263;-85
2021/12/27 01:26:51;;;;;;;;;;;22.10;47.40;;;;;;683350;29;1252;-86
2021/12/27 01:27:11;;;;;;;;;;;22.10;48.10;;;;;;683409;29;1049;-86
2021/12/27 01:27:33;;;;;;;;;;;22.20;47.50;;;;;;684015;28;862;-86
2021/12/27 01:27:53;;;;;;;;;;;22.20;47.50;;;;;;686073;28;1401;-88
2021/12/27 01:28:16;;;;;;;;;;;22.10;47.70;;;;;;685474;28;1278;-87
2021/12/27 01:28:37;;;;;;;;;;;22.20;48.00;;;;;;683259;28;1263;-85
2021/12/27 01:28:59;;;;;;;;;;;22.10;47.50;;;;;;684565;28;1416;-87
2021/12/27 01:29:19;;;;;;;;;;;22.20;47.50;;;;;;686106;28;878;-87
2021/12/27 01:29:40;;;;;;;;;;;22.20;47.80;;;;;;686544;28;1363;-86
2021/12/27 01:30:01;;;;;;;;;;;22.20;47.90;;;;;;686738;28;1097;-89
2021/12/27 01:30:22;;;;;;;;;;;22.20;47.60;;;;;;683314;28;1289;-87
2021/12/27 01:30:47;;;;;;;;;;;22.20;48.00;;;;;;683391;29;1018;-87
2021/12/27 01:31:08;;;;;;;;;;;22.10;48.50;;;;;;683411;29;839;-86
2021/12/27 01:31:29;;;;;;;;;;;22.20;47.60;;;;;;684479;28;1313;-89
2021/12/27 01:31:50;;;;;;;;;;;22.10;47.50;;;;;;685030;28;859;-84
2021/12/27 01:32:10;;;;;;;;;;;22.20;47.50;;;;;;687597;28;1272;-87
2021/12/27 01:32:36;;;;;;;;;;;22.20;47.40;;;;;;689386;28;798;-87
2021/12/27 01:33:00;;;;;;;;;;;22.20;47.50;;;;;;686714;28;1244;-94
2021/12/27 01:33:21;;;;;;;;;;;22.10;47.30;;;;;;685045;28;1243;-89
2021/12/27 01:33:44;;;;;;;;;;;22.20;47.40;;;;;;683562;28;1195;-89
2021/12/27 01:34:04;;;;;;;;;;;22.20;47.80;;;;;;679421;29;1298;-83
2021/12/27 01:34:26;;;;;;;;;;;22.20;47.70;;;;;;679842;29;1033;-84
2021/12/27 01:34:47;;;;;;;;;;;22.20;47.60;;;;;;682670;29;792;-85
2021/12/27 01:35:07;;;;;;;;;;;22.10;47.50;;;;;;684637;29;1196;-88
2021/12/27 01:35:28;;;;;;;;;;;22.20;47.90;;;;;;687210;28;783;-86
2021/12/27 01:35:49;;;;;;;;;;;22.20;47.90;;;;;;688091;28;1056;-87
2021/12/27 01:36:10;;;;;;;;;;;22.20;47.70;;;;;;687804;28;1357;-85
2021/12/27 01:36:34;;;;;;;;;;;22.20;47.60;;;;;;685178;29;1100;-86
2021/12/27 01:36:56;;;;;;;;;;;22.10;47.50;;;;;;685918;29;930;-87
2021/12/27 01:37:18;;;;;;;;;;;22.10;48.00;;;;;;685965;28;1887;-84
2021/12/27 01:37:39;;;;;;;;;;;22.10;47.50;;;;;;687436;28;1041;-86
2021/12/27 01:38:00;;;;;;;;;;;22.10;47.40;;;;;;688681;28;1216;-86
2021/12/27 01:38:20;;;;;;;;;;;22.20;48.00;;;;;;689035;28;1347;-86
2021/12/27 01:38:41;;;;;;;;;;;22.10;47.50;;;;;;688781;28;1315;-86
2021/12/27 01:39:04;;;;;;;;;;;22.10;47.30;;;;;;688279;28;1280;-86
2021/12/27 01:39:24;;;;;;;;;;;22.10;47.30;;;;;;686053;28;1184;-87
2021/12/27 01:39:45;;;;;;;;;;;22.20;47.30;;;;;;687505;28;1299;-86
2021/12/27 01:40:07;;;;;;;;;;;22.20;47.60;;;;;;686456;28;993;-86
2021/12/27 01:40:28;;;;;;;;;;;22.20;47.60;;;;;;685249;29;1368;-85
2021/12/27 01:40:50;;;;;;;;;;;22.20;47.60;;;;;;686740;28;882;-86
2021/12/27 01:41:12;;;;;;;;;;;22.10;47.60;;;;;;686398;28;1346;-85
2021/12/27 01:41:33;;;;;;;;;;;22.20;47.70;;;;;;687458;28;862;-89
2021/12/27 01:41:54;;;;;;;;;;;22.20;47.60;;;;;;686396;29;1036;-88
2021/12/27 01:42:14;;;;;;;;;;;22.10;47.60;;;;;;686673;28;1222;-85
2021/12/27 01:42:35;;;;;;;;;;;22.20;47.70;;;;;;685106;28;1275;-84
2021/12/27 01:42:59;;;;;;;;;;;22.20;47.90;;;;;;684855;29;795;-87
2021/12/27 01:43:22;;;;;;;;;;;22.20;47.70;;;;;;683338;29;1442;-85
2021/12/27 01:43:42;;;;;;;;;;;22.20;47.60;;;;;;683348;29;800;-86
2021/12/27 01:44:03;;;;;;;;;;;22.20;47.60;;;;;;684259;28;902;-87
2021/12/27 01:44:23;;;;;;;;;;;22.20;47.80;;;;;;684865;28;811;-83
2021/12/27 01:44:45;;;;;;;;;;;22.20;47.60;;;;;;683598;29;823;-84
2021/12/27 01:45:06;;;;;;;;;;;22.20;47.60;;;;;;685965;28;1091;-84
2021/12/27 01:45:26;;;;;;;;;;;22.20;47.40;;;;;;685809;28;1477;-84
2021/12/27 01:45:49;;;;;;;;;;;22.20;47.30;;;;;;686222;28;756;-83
2021/12/27 01:46:12;;;;;;;;;;;22.20;47.20;;;;;;683486;28;1244;-83
2021/12/27 01:46:33;;;;;;;;;;;22.20;47.20;;;;;;683132;29;772;-84
2021/12/27 01:46:53;;;;;;;;;;;22.20;47.00;;;;;;682222;28;1106;-85
2021/12/27 01:47:14;;;;;;;;;;;22.20;47.00;;;;;;680784;29;882;-83
2021/12/27 01:47:35;;;;;;;;;;;22.20;47.20;;;;;;680610;29;836;-83
2021/12/27 01:47:55;;;;;;;;;;;22.20;47.30;;;;;;681222;29;835;-84
2021/12/27 01:48:20;;;;;;;;;;;22.20;47.30;;;;;;683405;29;859;-84
2021/12/27 01:48:43;;;;;;;;;;;22.20;47.10;;;;;;683416;29;866;-84
2021/12/27 01:49:05;;;;;;;;;;;22.20;47.10;;;;;;683734;28;748;-84
2021/12/27 01:49:26;;;;;;;;;;;22.20;47.20;;;;;;683467;28;1274;-87
2021/12/27 01:49:46;;;;;;;;;;;22.20;47.20;;;;;;683867;28;1398;-83
2021/12/27 01:50:07;;;;;;;;;;;22.20;47.10;;;;;;683483;29;808;-84
2021/12/27 01:50:28;;;;;;;;;;;22.20;47.70;;;;;;683234;28;1475;-85
2021/12/27 01:50:49;;;;;;;;;;;22.20;47.40;;;;;;680645;28;1291;-84
2021/12/27 01:51:11;;;;;;;;;;;22.20;47.20;;;;;;680578;29;957;-88
2021/12/27 01:51:31;;;;;;;;;;;22.20;47.60;;;;;;680607;29;1233;-85
2021/12/27 01:51:52;;;;;;;;;;;22.20;47.60;;;;;;681085;28;1297;-84
2021/12/27 01:52:12;;;;;;;;;;;22.20;47.50;;;;;;680892;29;914;-84
2021/12/27 01:52:33;;;;;;;;;;;22.20;47.50;;;;;;681193;29;926;-83
2021/12/27 01:52:53;;;;;;;;;;;22.20;47.30;;;;;;683484;29;736;-84
2021/12/27 01:53:15;;;;;;;;;;;22.20;48.00;;;;;;683618;29;918;-82
2021/12/27 01:53:36;;;;;;;;;;;22.20;48.60;;;;;;683390;29;748;-81
2021/12/27 01:53:58;;;;;;;;;;;22.20;48.80;;;;;;683500;28;835;-82
2021/12/27 01:54:19;;;;;;;;;;;22.30;48.50;;;;;;683878;28;902;-82
2021/12/27 01:54:40;;;;;;;;;;;22.20;49.00;;;;;;683727;28;819;-84
2021/12/27 01:55:00;;;;;;;;;;;22.30;49.20;;;;;;683411;29;1284;-83
2021/12/27 01:55:21;;;;;;;;;;;22.30;49.20;;;;;;683966;29;823;-84
2021/12/27 01:55:42;;;;;;;;;;;22.30;49.20;;;;;;683285;29;953;-82
2021/12/27 01:56:03;;;;;;;;;;;22.30;49.40;;;;;;683248;29;1432;-84
2021/12/27 01:56:24;;;;;;;;;;;22.30;49.40;;;;;;683136;28;1192;-84
2021/12/27 01:56:45;;;;;;;;;;;22.30;49.40;;;;;;684169;29;922;-83
2021/12/27 01:57:05;;;;;;;;;;;22.40;49.60;;;;;;685859;28;1208;-84
2021/12/27 01:57:26;;;;;;;;;;;22.40;49.30;;;;;;686663;28;1895;-87
2021/12/27 01:57:47;;;;;;;;;;;22.30;49.10;;;;;;686713;28;1322;-89
2021/12/27 01:58:08;;;;;;;;;;;22.40;49.00;;;;;;688070;28;1251;-93
2021/12/27 01:58:28;;;;;;;;;;;22.40;49.30;;;;;;689084;28;1337;-88
2021/12/27 01:58:50;;;;;;;;;;;22.40;48.90;;;;;;688859;28;858;-89
2021/12/27 01:59:10;;;;;;;;;;;22.40;48.80;;;;;;687174;28;819;-83
2021/12/27 01:59:31;;;;;;;;;;;22.40;48.30;;;;;;686852;28;870;-81
2021/12/27 01:59:52;;;;;;;;;;;22.40;48.30;;;;;;683955;28;1079;-82
2021/12/27 02:00:13;;;;;;;;;;;22.40;48.50;;;;;;682049;29;1304;-84
2021/12/27 02:00:34;;;;;;;;;;;22.30;48.30;;;;;;684120;29;1477;-84
2021/12/27 02:00:56;;;;;;;;;;;22.40;48.60;;;;;;684258;29;955;-84
2021/12/27 02:01:17;;;;;;;;;;;22.40;48.30;;;;;;684385;29;949;-85
2021/12/27 02:01:38;;;;;;;;;;;22.40;48.40;;;;;;684854;28;946;-86
2021/12/27 02:01:58;;;;;;;;;;;22.40;48.30;;;;;;686628;28;771;-86
2021/12/27 02:02:19;;;;;;;;;;;22.40;48.20;;;;;;686876;28;1053;-85
2021/12/27 02:02:39;;;;;;;;;;;22.40;48.20;;;;;;686816;28;759;-85
2021/12/27 02:03:00;;;;;;;;;;;22.40;48.00;;;;;;686026;28;1274;-85
2021/12/27 02:03:26;;;;;;;;;;;22.40;48.30;;;;;;686479;28;923;-85
2021/12/27 02:03:48;;;;;;;;;;;22.70;48.00;;;;;;686532;28;1016;-86
2021/12/27 02:04:11;;;;;;;;;;;22.40;47.90;;;;;;685993;28;1203;-85
2021/12/27 02:04:31;;;;;;;;;;;22.40;47.90;;;;;;686108;28;1289;-86
2021/12/27 02:04:52;;;;;;;;;;;22.40;48.20;;;;;;686254;28;871;-84
2021/12/27 02:05:13;;;;;;;;;;;22.40;49.30;;;;;;686382;28;1334;-84
2021/12/27 02:05:34;;;;;;;;;;;22.40;48.10;;;;;;684107;28;1622;-82
2021/12/27 02:05:55;;;;;;;;;;;22.30;48.00;;;;;;684574;28;886;-84
2021/12/27 02:06:16;;;;;;;;;;;22.40;48.10;;;;;;686655;28;1266;-83
2021/12/27 02:06:36;;;;;;;;;;;22.40;48.00;;;;;;686743;28;787;-83
2021/12/27 02:06:57;;;;;;;;;;;22.20;48.00;;;;;;686840;28;775;-85
2021/12/27 02:07:17;;;;;;;;;;;22.40;48.30;;;;;;686493;28;934;-85
2021/12/27 02:07:38;;;;;;;;;;;22.40;48.40;;;;;;685876;28;1501;-85
2021/12/27 02:07:59;;;;;;;;;;;22.40;48.00;;;;;;686346;28;1294;-86
2021/12/27 02:08:19;;;;;;;;;;;22.40;47.80;;;;;;686133;28;894;-87
2021/12/27 02:08:41;;;;;;;;;;;22.40;47.70;;;;;;684357;28;1514;-86
2021/12/27 02:09:04;;;;;;;;;;;22.40;48.00;;;;;;683340;28;1240;-85
2021/12/27 02:09:34;;;;;;;;;;;22.40;48.00;;;;;;680827;29;859;-86
2021/12/27 02:10:04;;;;;;;;;;;22.40;47.90;;;;;;682608;29;875;-86
2021/12/27 02:10:24;;;;;;;;;;;22.40;47.80;;;;;;683475;28;840;-85
2021/12/27 02:10:46;;;;;;;;;;;22.40;47.70;;;;;;684289;28;867;-87
2021/12/27 02:11:07;;;;;;;;;;;22.40;47.90;;;;;;683418;28;1424;-86
2021/12/27 02:11:33;;;;;;;;;;;22.40;48.00;;;;;;686358;28;843;-87
2021/12/27 02:11:54;;;;;;;;;;;22.40;47.90;;;;;;683356;28;1311;-85
2021/12/27 02:12:15;;;;;;;;;;;22.40;48.00;;;;;;683398;29;989;-84